Time;durP1;ratioP1;P1;durP2;ratioP2;P2;SDS_P1;SDS_P2;PMS_P1;PMS_P2;Temp;Humidity;BMP_temperature;BMP_pressure;BME280_temperature;BME280_humidity;BME280_pressure;Samples;Min_cycle;Max_cycle;Signal;HPM_P1;HPM_P2
2023/06/11 04:31:46;;;;;;;14.30;7.13;;;19.00;80.80;;;;;;5335357;23;20051;-77
2023/06/11 04:34:12;;;;;;;15.98;8.48;;;19.00;80.70;;;;;;4986134;28;20202;-77
2023/06/11 04:36:40;;;;;;;14.57;7.80;;;19.00;80.30;;;;;;4979992;28;20042;-77
2023/06/11 04:39:07;;;;;;;15.23;8.07;;;19.10;80.10;;;;;;4974331;28;20026;-77
2023/06/11 04:41:36;;;;;;;13.52;7.15;;;19.10;80.20;;;;;;4994832;28;20038;-77
2023/06/11 04:44:05;;;;;;;15.38;8.38;;;19.00;80.80;;;;;;5009228;28;20093;-77
2023/06/11 04:46:34;;;;;;;15.18;8.23;;;19.00;80.80;;;;;;4996674;28;20037;-77
2023/06/11 04:49:00;;;;;;;13.73;8.13;;;19.10;80.50;;;;;;4978807;28;20027;-77
2023/06/11 04:51:32;;;;;;;13.48;7.53;;;19.10;80.30;;;;;;4977579;28;20034;-77
2023/06/11 04:54:00;;;;;;;14.45;7.95;;;19.10;80.40;;;;;;4995060;28;20557;-77
2023/06/11 04:56:26;;;;;;;12.88;7.13;;;19.10;80.10;;;;;;4965047;28;20045;-79
2023/06/11 04:58:52;;;;;;;17.85;7.78;;;19.10;80.30;;;;;;4964246;28;20034;-78
2023/06/11 05:01:18;;;;;;;11.82;7.30;;;19.20;80.40;;;;;;4994038;28;20448;-77
2023/06/11 05:03:43;;;;;;;13.82;7.13;;;19.20;80.20;;;;;;4984982;28;20122;-77
2023/06/11 05:06:13;;;;;;;14.55;8.15;;;19.20;80.40;;;;;;4978576;28;20458;-77
2023/06/11 05:08:39;;;;;;;15.25;7.50;;;19.30;80.20;;;;;;4979276;28;20022;-77
2023/06/11 05:11:04;;;;;;;17.50;8.02;;;19.30;80.00;;;;;;4978697;28;20045;-77
2023/06/11 05:13:30;;;;;;;14.50;7.68;;;19.30;80.10;;;;;;4978626;28;20038;-77
2023/06/11 05:15:57;;;;;;;17.35;7.40;;;19.30;80.10;;;;;;4977189;28;20057;-77
2023/06/11 05:18:26;;;;;;;13.43;7.60;;;19.40;80.00;;;;;;4979443;28;20050;-76
2023/06/11 05:20:53;;;;;;;12.23;6.68;;;19.40;79.80;;;;;;4980271;28;20030;-77
2023/06/11 05:23:22;;;;;;;12.20;7.05;;;19.40;79.70;;;;;;4980558;28;20039;-78
2023/06/11 05:25:50;;;;;;;14.35;6.88;;;19.50;79.70;;;;;;4978394;28;20034;-77
2023/06/11 05:28:16;;;;;;;14.20;7.38;;;19.60;79.40;;;;;;4961020;28;20110;-77
2023/06/11 05:30:45;;;;;;;12.65;6.43;;;19.60;79.20;;;;;;4978649;28;20757;-77
2023/06/11 05:33:13;;;;;;;12.25;7.20;;;19.70;79.10;;;;;;4963030;28;20542;-77
2023/06/11 05:35:39;;;;;;;15.38;7.20;;;19.70;79.20;;;;;;4997546;28;20030;-77
2023/06/11 05:38:08;;;;;;;12.73;6.60;;;19.80;79.00;;;;;;4980323;28;20030;-76
2023/06/11 05:40:37;;;;;;;11.48;6.75;;;19.80;79.10;;;;;;4969203;28;20039;-77
2023/06/11 05:43:06;;;;;;;13.85;6.95;;;19.90;78.70;;;;;;4996789;28;20026;-77
2023/06/11 05:45:32;;;;;;;11.93;6.65;;;19.90;78.50;;;;;;4980646;28;20035;-77
2023/06/11 05:47:59;;;;;;;12.05;7.10;;;19.90;78.40;;;;;;4974539;28;20088;-77
2023/06/11 05:50:24;;;;;;;10.88;6.20;;;20.00;78.40;;;;;;4997383;28;20022;-77
2023/06/11 05:52:50;;;;;;;10.52;5.80;;;20.10;78.20;;;;;;4979564;28;20034;-77
2023/06/11 05:55:16;;;;;;;12.52;5.78;;;20.20;78.00;;;;;;4997276;28;20440;-77
2023/06/11 05:57:41;;;;;;;13.13;6.03;;;20.20;77.80;;;;;;4971033;28;20062;-77
2023/06/11 06:00:12;;;;;;;10.88;5.93;;;20.30;77.50;;;;;;4977718;28;20061;-77
2023/06/11 06:02:41;;;;;;;9.35;5.15;;;20.30;77.40;;;;;;4977547;28;20026;-77
2023/06/11 06:05:07;;;;;;;10.75;5.35;;;20.40;77.10;;;;;;4982933;28;20070;-77
2023/06/11 06:07:33;;;;;;;14.57;5.78;;;20.50;76.70;;;;;;4990543;28;20034;-77
2023/06/11 06:09:59;;;;;;;9.98;5.10;;;20.60;76.60;;;;;;4979353;28;20038;-77
2023/06/11 06:12:25;;;;;;;10.65;6.03;;;20.60;76.40;;;;;;4997293;28;20018;-77
2023/06/11 06:14:50;;;;;;;10.90;5.25;;;20.70;76.10;;;;;;4996748;28;20366;-77
2023/06/11 06:17:16;;;;;;;8.48;4.88;;;20.70;75.80;;;;;;4995908;28;20093;-76
2023/06/11 06:19:42;;;;;;;10.30;5.78;;;20.80;75.80;;;;;;4996645;28;20041;-77
2023/06/11 06:22:07;;;;;;;9.68;5.10;;;20.80;75.70;;;;;;4995923;28;20023;-77
2023/06/11 06:24:33;;;;;;;8.10;4.32;;;20.80;75.50;;;;;;4996360;28;20026;-77
2023/06/11 06:27:00;;;;;;;11.32;4.47;;;20.90;75.10;;;;;;4998872;28;20031;-77
2023/06/11 06:29:25;;;;;;;8.70;4.20;;;20.90;74.90;;;;;;4980034;28;20033;-77
2023/06/11 06:31:52;;;;;;;7.85;4.43;;;21.00;74.40;;;;;;4960129;28;20051;-82
2023/06/11 06:34:18;;;;;;;10.63;4.70;;;21.10;74.50;;;;;;4988298;28;20035;-81
2023/06/11 06:36:43;;;;;;;8.98;4.68;;;21.20;74.20;;;;;;4996696;28;20026;-78
2023/06/11 06:39:09;;;;;;;9.63;4.88;;;21.30;73.90;;;;;;4979124;28;20039;-77
2023/06/11 06:41:35;;;;;;;9.57;4.65;;;21.30;73.10;;;;;;4982687;28;20057;-76
2023/06/11 06:44:01;;;;;;;8.90;4.28;;;21.50;73.10;;;;;;4992860;28;20030;-79
2023/06/11 06:46:26;;;;;;;6.85;3.90;;;21.60;72.80;;;;;;4998022;28;20033;-83
2023/06/11 06:48:52;;;;;;;8.65;3.83;;;21.70;72.10;;;;;;5000168;28;20185;-81
2023/06/11 06:51:20;;;;;;;8.25;3.95;;;21.80;72.00;;;;;;4976801;28;20129;-78
2023/06/11 06:53:50;;;;;;;6.93;3.65;;;21.80;71.60;;;;;;4975718;28;20034;-80
2023/06/11 06:56:19;;;;;;;7.20;3.20;;;21.90;71.40;;;;;;4996369;28;20018;-79
2023/06/11 06:58:44;;;;;;;9.07;3.70;;;21.90;70.90;;;;;;4978835;28;20034;-80
2023/06/11 07:01:10;;;;;;;7.35;3.45;;;22.00;70.60;;;;;;4982436;28;20160;-82
2023/06/11 07:03:36;;;;;;;7.55;3.45;;;22.10;70.30;;;;;;4982505;28;20355;-76
2023/06/11 07:06:02;;;;;;;8.55;3.50;;;22.10;70.70;;;;;;4996060;28;20069;-76
2023/06/11 07:08:27;;;;;;;8.63;4.10;;;22.30;70.50;;;;;;4986823;28;20045;-78
2023/06/11 07:10:55;;;;;;;6.07;3.83;;;22.20;69.70;;;;;;4976098;28;20784;-80
2023/06/11 07:13:21;;;;;;;6.03;3.20;;;22.10;70.00;;;;;;4975112;28;20031;-83
2023/06/11 07:15:48;;;;;;;6.05;3.67;;;22.10;70.20;;;;;;4977328;28;20032;-78
2023/06/11 07:18:14;;;;;;;7.65;3.83;;;22.00;70.50;;;;;;4959349;28;20034;-76
2023/06/11 07:20:39;;;;;;;7.95;3.60;;;22.00;70.90;;;;;;4959277;28;20030;-77
2023/06/11 07:23:05;;;;;;;7.47;3.40;;;21.90;71.20;;;;;;4959855;28;20033;-77
2023/06/11 07:25:31;;;;;;;8.30;3.30;;;22.00;71.20;;;;;;4975192;28;20026;-81
2023/06/11 07:28:01;;;;;;;5.88;3.30;;;22.40;70.50;;;;;;4991423;28;20030;-82
2023/06/11 07:30:28;;;;;;;7.90;3.15;;;22.80;69.70;;;;;;4995733;28;20096;-80
2023/06/11 07:32:53;;;;;;;7.07;2.92;;;23.00;68.70;;;;;;4993800;28;20576;-79
2023/06/11 07:35:20;;;;;;;7.20;3.22;;;23.40;67.80;;;;;;4993795;28;20026;-82
2023/06/11 07:37:46;;;;;;;8.43;2.90;;;23.70;67.50;;;;;;4978134;28;20042;-82
2023/06/11 07:40:13;;;;;;;4.55;2.70;;;23.90;65.90;;;;;;4978321;28;20054;-86
2023/06/11 07:42:39;;;;;;;5.43;2.55;;;24.30;65.30;;;;;;4981368;28;20022;-83
2023/06/11 07:45:08;;;;;;;7.40;2.75;;;24.50;64.60;;;;;;5004254;28;20091;-84
2023/06/11 07:47:33;;;;;;;5.68;2.80;;;25.30;62.50;;;;;;4992839;28;20437;-86
2023/06/11 07:49:59;;;;;;;6.28;2.40;;;27.50;58.00;;;;;;4995608;28;20037;-87
2023/06/11 07:52:25;;;;;;;4.90;2.47;;;30.00;51.30;;;;;;4981485;28;20038;-87
2023/06/11 07:54:51;;;;;;;4.22;2.40;;;32.10;46.10;;;;;;4970929;28;20121;-88
2023/06/11 07:57:17;;;;;;;4.65;2.33;;;34.10;42.00;;;;;;4986164;28;20061;-90
2023/06/11 07:59:43;;;;;;;3.83;2.20;;;35.10;38.10;;;;;;4982980;28;20038;-85
2023/06/11 08:02:10;;;;;;;3.83;2.03;;;34.30;39.70;;;;;;4989034;28;20451;-87
2023/06/11 08:04:36;;;;;;;4.10;2.08;;;35.80;36.50;;;;;;4972576;28;20035;-86
2023/06/11 08:07:03;;;;;;;5.22;2.35;;;34.60;38.60;;;;;;5000417;28;20111;-92
2023/06/11 08:09:29;;;;;;;3.97;2.03;;;33.90;39.00;;;;;;4974761;28;20027;-84
2023/06/11 08:11:55;;;;;;;4.05;1.70;;;32.70;40.20;;;;;;4994232;28;20094;-84
2023/06/11 08:14:21;;;;;;;6.20;2.38;;;31.10;43.80;;;;;;4995453;28;20035;-87
2023/06/11 08:16:47;;;;;;;4.75;2.10;;;29.90;46.30;;;;;;4977091;28;20030;-87
2023/06/11 08:19:13;;;;;;;4.70;2.10;;;29.10;48.30;;;;;;4985857;28;20034;-84
2023/06/11 08:21:39;;;;;;;5.22;2.20;;;28.90;49.00;;;;;;4986563;28;20109;-86
2023/06/11 08:24:06;;;;;;;4.25;2.20;;;28.30;49.90;;;;;;4984918;28;20118;-86
2023/06/11 08:26:32;;;;;;;4.97;1.90;;;28.60;49.90;;;;;;4974860;28;20014;-85
2023/06/11 08:28:58;;;;;;;4.65;1.90;;;28.30;49.80;;;;;;4985326;28;20033;-86
2023/06/11 08:31:24;;;;;;;5.82;2.30;;;28.40;50.80;;;;;;4992532;28;20050;-85
2023/06/11 08:33:50;;;;;;;5.25;2.00;;;28.30;49.80;;;;;;4978371;28;20042;-86
2023/06/11 08:36:17;;;;;;;3.95;2.10;;;28.30;50.00;;;;;;4975315;28;20065;-87
2023/06/11 08:38:43;;;;;;;5.38;2.53;;;28.00;50.10;;;;;;4974457;28;20041;-87
2023/06/11 08:41:09;;;;;;;7.60;2.75;;;27.80;51.80;;;;;;4971450;28;20042;-87
2023/06/11 08:43:35;;;;;;;4.95;2.30;;;27.60;52.50;;;;;;4984863;28;20421;-87
2023/06/11 08:46:01;;;;;;;7.00;2.30;;;27.30;51.90;;;;;;4967779;28;20080;-86
2023/06/11 08:48:30;;;;;;;6.55;2.60;;;26.90;53.70;;;;;;4989180;28;20058;-89
2023/06/11 08:50:58;;;;;;;4.32;2.00;;;26.80;54.00;;;;;;4979351;28;20113;-86
2023/06/11 08:53:26;;;;;;;6.40;2.80;;;27.00;53.90;;;;;;4988458;28;20512;-89
2023/06/11 08:55:52;;;;;;;4.97;2.20;;;29.20;48.60;;;;;;4994007;28;20042;-83
2023/06/11 08:58:20;;;;;;;3.47;2.05;;;31.00;46.60;;;;;;5009305;28;20126;-86
2023/06/11 09:00:46;;;;;;;3.35;1.98;;;32.00;43.30;;;;;;4987765;28;20461;-84
2023/06/11 09:03:12;;;;;;;4.93;2.05;;;32.70;41.00;;;;;;4986526;28;20050;-83
2023/06/11 09:05:39;;;;;;;3.60;1.80;;;31.70;42.70;;;;;;4997263;28;20105;-84
2023/06/11 09:08:08;;;;;;;4.55;1.83;;;30.70;43.30;;;;;;4977294;28;20097;-84
2023/06/11 09:10:34;;;;;;;4.55;2.20;;;29.70;45.70;;;;;;4990854;28;20019;-83
2023/06/11 09:13:00;;;;;;;3.50;2.00;;;29.90;46.80;;;;;;4988177;28;20107;-83
2023/06/11 09:15:26;;;;;;;5.22;2.20;;;29.70;46.40;;;;;;4961203;28;20031;-85
2023/06/11 09:17:52;;;;;;;6.15;2.58;;;29.70;47.70;;;;;;4969067;28;20034;-79
2023/06/11 09:20:19;;;;;;;6.32;2.47;;;30.70;43.50;;;;;;4997837;28;20037;-76
2023/06/11 09:22:45;;;;;;;4.18;2.25;;;31.20;42.10;;;;;;4997981;28;20036;-77
2023/06/11 09:25:16;;;;;;;4.03;1.92;;;32.20;42.10;;;;;;4979671;28;20031;-76
2023/06/11 09:27:45;;;;;;;5.82;2.10;;;33.40;40.10;;;;;;4997705;28;20025;-77
2023/06/11 09:30:16;;;;;;;3.85;1.90;;;34.30;38.80;;;;;;4985368;28;20038;-77
2023/06/11 09:32:44;;;;;;;3.53;2.42;;;35.30;37.80;;;;;;4977269;28;20454;-77
2023/06/11 09:35:11;;;;;;;4.15;2.20;;;36.00;35.60;;;;;;4995824;28;20397;-76
2023/06/11 09:37:49;;;;;;;3.72;2.25;;;36.80;35.20;;;;;;4966375;28;20058;-77
2023/06/11 09:40:17;;;;;;;5.65;2.35;;;37.00;33.30;;;;;;4978152;28;20460;-77
2023/06/11 09:42:44;;;;;;;3.42;1.92;;;36.90;31.20;;;;;;4994234;28;20017;-77
2023/06/11 09:45:16;;;;;;;5.45;3.15;;;35.90;35.10;;;;;;4991576;28;20423;-77
2023/06/11 09:47:46;;;;;;;5.03;2.20;;;35.40;36.20;;;;;;4978809;28;20026;-77
2023/06/11 09:50:16;;;;;;;3.55;1.60;;;36.10;32.80;;;;;;4960797;28;20034;-77
2023/06/11 09:52:43;;;;;;;3.27;1.83;;;34.70;36.10;;;;;;4980244;28;20097;-76
2023/06/11 09:55:10;;;;;;;4.65;2.58;;;33.80;36.20;;;;;;4997472;28;20477;-77
2023/06/11 09:57:38;;;;;;;3.72;1.77;;;34.50;36.20;;;;;;4969273;28;20505;-77
2023/06/11 10:00:09;;;;;;;4.47;2.20;;;33.60;38.50;;;;;;4988723;28;20022;-76
2023/06/11 10:02:35;;;;;;;4.07;1.67;;;32.50;39.70;;;;;;4960466;28;20488;-76
2023/06/11 10:05:01;;;;;;;3.15;1.83;;;31.30;41.60;;;;;;4976581;28;20120;-76
2023/06/11 10:07:29;;;;;;;4.47;1.85;;;30.70;43.00;;;;;;4996956;28;20111;-76
2023/06/11 10:09:55;;;;;;;4.90;2.40;;;31.30;43.40;;;;;;4997010;28;20073;-77
2023/06/11 10:12:21;;;;;;;4.78;2.00;;;31.40;41.70;;;;;;4976817;28;20054;-76
2023/06/11 10:14:53;;;;;;;3.78;2.00;;;32.50;41.40;;;;;;4979601;28;20025;-77
2023/06/11 10:17:21;;;;;;;3.47;1.77;;;33.50;37.10;;;;;;4988776;28;20460;-77
2023/06/11 10:19:51;;;;;;;3.05;1.90;;;34.00;37.50;;;;;;4984503;28;20033;-76
2023/06/11 10:22:32;;;;;;;4.63;1.80;;;34.40;37.80;;;;;;4982844;28;20030;-77
2023/06/11 10:25:02;;;;;;;4.07;1.90;;;34.60;36.90;;;;;;4964241;28;20535;-76
2023/06/11 10:27:39;;;;;;;4.63;2.20;;;34.60;36.60;;;;;;4996861;28;20104;-76
2023/06/11 10:30:08;;;;;;;3.47;1.88;;;33.60;37.90;;;;;;4995647;28;20540;-76
2023/06/11 10:32:34;;;;;;;4.97;1.90;;;32.40;38.90;;;;;;4989275;28;20034;-76
2023/06/11 10:35:03;;;;;;;5.05;2.20;;;31.60;40.90;;;;;;4979028;28;20027;-76
2023/06/11 10:37:35;;;;;;;4.85;2.30;;;30.90;41.60;;;;;;4979049;28;20137;-76
2023/06/11 10:40:01;;;;;;;4.35;2.60;;;30.40;43.60;;;;;;4978138;28;20041;-76
2023/06/11 10:42:38;;;;;;;3.38;1.73;;;30.30;42.70;;;;;;4997856;28;20727;-76
2023/06/11 10:45:10;;;;;;;3.38;1.88;;;30.20;43.60;;;;;;4992820;28;20511;-76
2023/06/11 10:47:42;;;;;;;3.50;1.88;;;30.10;44.50;;;;;;4995624;28;20493;-76
2023/06/11 10:50:12;;;;;;;6.65;2.05;;;30.10;45.10;;;;;;4978989;28;20074;-76
2023/06/11 10:52:53;;;;;;;3.78;1.50;;;30.20;45.00;;;;;;4995395;28;20057;-76
2023/06/11 10:55:21;;;;;;;3.63;1.67;;;30.30;43.70;;;;;;4983193;28;20058;-76
2023/06/11 10:57:53;;;;;;;3.40;1.60;;;30.30;42.70;;;;;;4976800;28;20021;-77
2023/06/11 11:00:20;;;;;;;4.63;2.20;;;30.30;43.20;;;;;;4975549;28;20038;-76
2023/06/11 11:02:46;;;;;;;6.28;2.05;;;30.30;44.90;;;;;;4970197;28;20579;-76
2023/06/11 11:05:12;;;;;;;5.30;1.60;;;30.30;44.70;;;;;;4995963;28;20056;-76
2023/06/11 11:07:38;;;;;;;5.13;1.60;;;30.30;44.20;;;;;;4996345;28;20030;-76
2023/06/11 11:10:05;;;;;;;3.95;1.50;;;30.30;42.90;;;;;;4977375;28;20400;-76
2023/06/11 11:12:39;;;;;;;3.92;1.67;;;30.50;44.00;;;;;;4996203;28;20026;-76
2023/06/11 11:15:07;;;;;;;4.40;2.00;;;30.40;42.80;;;;;;4995256;28;20037;-76
2023/06/11 11:17:34;;;;;;;3.55;1.52;;;30.30;43.10;;;;;;4959499;28;20027;-76
2023/06/11 11:20:00;;;;;;;3.65;1.65;;;29.90;43.30;;;;;;4959682;28;20117;-76
2023/06/11 11:22:27;;;;;;;3.17;1.60;;;29.70;43.90;;;;;;4980110;28;20031;-76
2023/06/11 11:24:53;;;;;;;4.65;2.15;;;29.80;44.40;;;;;;4978468;28;20037;-76
2023/06/11 11:27:22;;;;;;;6.20;2.30;;;29.50;42.70;;;;;;4995869;28;20023;-76
2023/06/11 11:29:49;;;;;;;4.32;1.95;;;29.30;45.60;;;;;;4978034;28;20046;-76
2023/06/11 11:32:14;;;;;;;5.13;2.00;;;29.00;45.90;;;;;;4995739;28;20046;-76
2023/06/11 11:34:40;;;;;;;5.38;1.88;;;28.60;46.40;;;;;;4978301;28;20113;-76
2023/06/11 11:37:06;;;;;;;5.80;1.77;;;28.50;46.80;;;;;;4993578;28;20793;-76
2023/06/11 11:39:32;;;;;;;3.03;1.60;;;28.40;47.80;;;;;;4959251;28;20031;-76
2023/06/11 11:41:59;;;;;;;3.10;1.65;;;28.70;46.80;;;;;;4987578;28;20486;-76
2023/06/11 11:44:25;;;;;;;3.22;1.55;;;28.60;46.40;;;;;;4975149;28;20031;-76
2023/06/11 11:46:58;;;;;;;5.05;2.13;;;28.70;46.20;;;;;;4976351;28;20037;-75
2023/06/11 11:49:32;;;;;;;3.85;1.88;;;28.80;46.50;;;;;;4975100;28;20022;-75
2023/06/11 11:52:00;;;;;;;3.05;1.60;;;28.80;46.30;;;;;;4976503;28;20023;-76
2023/06/11 11:54:26;;;;;;;4.03;1.70;;;28.60;46.10;;;;;;4959449;28;20041;-75
2023/06/11 11:57:02;;;;;;;3.65;1.75;;;28.70;48.40;;;;;;4958870;28;20031;-75
2023/06/11 11:59:28;;;;;;;4.07;1.58;;;28.80;46.30;;;;;;4979683;28;20037;-76
2023/06/11 12:01:57;;;;;;;5.90;2.38;;;29.00;47.10;;;;;;4985500;28;20030;-76
2023/06/11 12:04:33;;;;;;;4.50;2.20;;;29.00;46.10;;;;;;4990303;28;20042;-76
2023/06/11 12:07:12;;;;;;;4.10;1.67;;;29.10;46.10;;;;;;4962379;28;20023;-76
2023/06/11 12:09:39;;;;;;;3.55;1.98;;;29.10;47.40;;;;;;4979982;28;20026;-76
2023/06/11 12:12:07;;;;;;;5.18;1.80;;;28.90;46.50;;;;;;4980038;28;20125;-76
2023/06/11 12:14:33;;;;;;;3.40;1.73;;;28.80;48.30;;;;;;4980208;28;20101;-76
2023/06/11 12:16:59;;;;;;;3.53;1.58;;;28.70;45.80;;;;;;4972827;28;20057;-76
2023/06/11 12:19:25;;;;;;;3.60;1.50;;;28.70;46.40;;;;;;4998907;28;20030;-76
2023/06/11 12:21:51;;;;;;;4.35;1.60;;;28.80;45.80;;;;;;4998610;28;20029;-76
2023/06/11 12:24:16;;;;;;;3.10;1.58;;;28.90;47.10;;;;;;4981662;28;20031;-76
2023/06/11 12:26:47;;;;;;;5.68;1.88;;;28.80;47.40;;;;;;4997502;28;20036;-76
2023/06/11 12:29:12;;;;;;;4.30;1.85;;;28.80;46.50;;;;;;4962147;28;20037;-76
2023/06/11 12:31:38;;;;;;;3.80;1.60;;;29.00;47.00;;;;;;4994391;28;20050;-76
2023/06/11 12:34:05;;;;;;;4.60;1.85;;;29.00;45.20;;;;;;4993824;28;20034;-76
2023/06/11 12:36:33;;;;;;;3.65;1.52;;;29.00;46.40;;;;;;4981281;28;20022;-76
2023/06/11 12:39:01;;;;;;;3.08;1.40;;;29.10;48.10;;;;;;4981474;28;20034;-76
2023/06/11 12:41:27;;;;;;;2.90;1.48;;;29.00;46.30;;;;;;4994385;28;20195;-76
2023/06/11 12:43:53;;;;;;;3.03;1.45;;;29.10;45.50;;;;;;5005014;28;20105;-76
2023/06/11 12:46:18;;;;;;;4.53;1.67;;;29.00;46.90;;;;;;5018534;28;20065;-76
2023/06/11 12:48:44;;;;;;;3.55;1.60;;;29.20;46.70;;;;;;5018203;28;20022;-76
2023/06/11 12:51:09;;;;;;;4.28;2.15;;;29.30;46.10;;;;;;5000728;28;20023;-76
2023/06/11 12:53:37;;;;;;;4.38;1.63;;;29.30;44.40;;;;;;4977920;28;20046;-76
2023/06/11 12:56:03;;;;;;;4.70;1.50;;;29.30;46.30;;;;;;4973548;28;20065;-76
2023/06/11 12:58:29;;;;;;;4.13;1.83;;;29.30;47.10;;;;;;4980927;28;20080;-76
2023/06/11 13:00:54;;;;;;;3.30;1.67;;;29.30;44.90;;;;;;4980798;28;20034;-76
2023/06/11 13:03:21;;;;;;;2.78;1.48;;;29.30;44.10;;;;;;4998412;28;20054;-76
2023/06/11 13:05:47;;;;;;;3.28;1.67;;;29.40;43.70;;;;;;4997284;28;20034;-76
2023/06/11 13:08:12;;;;;;;4.25;1.70;;;29.50;44.70;;;;;;4998590;28;20034;-76
2023/06/11 13:10:40;;;;;;;3.42;1.60;;;29.30;44.50;;;;;;4997291;28;20536;-76
2023/06/11 13:13:06;;;;;;;3.63;1.70;;;29.40;44.50;;;;;;4989422;28;20457;-76
2023/06/11 13:15:32;;;;;;;3.47;1.55;;;29.00;44.10;;;;;;4979058;28;20038;-76
2023/06/11 13:17:58;;;;;;;3.55;1.40;;;28.60;44.90;;;;;;4978799;28;20026;-76
2023/06/11 13:20:23;;;;;;;4.85;1.52;;;28.30;45.50;;;;;;4968313;28;20129;-76
2023/06/11 13:22:49;;;;;;;3.95;1.52;;;28.60;45.10;;;;;;4980427;28;20042;-76
2023/06/11 13:25:16;;;;;;;3.28;1.60;;;28.80;44.00;;;;;;4991774;28;20409;-76
2023/06/11 13:27:42;;;;;;;2.25;1.20;;;28.80;44.80;;;;;;4961173;28;20127;-75
2023/06/11 13:30:11;;;;;;;3.78;1.65;;;28.90;44.40;;;;;;4971183;28;20450;-77
2023/06/11 13:32:37;;;;;;;3.53;1.60;;;29.10;45.90;;;;;;4998022;28;20034;-76
2023/06/11 13:35:04;;;;;;;3.75;1.48;;;29.10;46.20;;;;;;4997262;28;20045;-76
2023/06/11 13:37:29;;;;;;;3.03;1.50;;;29.20;44.30;;;;;;4994094;28;20078;-76
2023/06/11 13:39:55;;;;;;;3.50;1.85;;;28.90;43.70;;;;;;4976803;28;20022;-76
2023/06/11 13:42:21;;;;;;;4.00;1.50;;;28.80;43.60;;;;;;4979643;28;20094;-75
2023/06/11 13:44:47;;;;;;;3.25;1.75;;;28.90;45.10;;;;;;4983812;28;20027;-76
2023/06/11 13:47:12;;;;;;;3.60;1.88;;;28.80;45.00;;;;;;4966190;28;20392;-76
2023/06/11 13:49:38;;;;;;;4.38;1.65;;;28.80;45.00;;;;;;4995949;28;20844;-75
2023/06/11 13:52:04;;;;;;;4.47;1.83;;;29.20;45.30;;;;;;4981935;28;20029;-76
2023/06/11 13:54:32;;;;;;;3.25;1.60;;;29.40;44.60;;;;;;4978480;28;20105;-76
2023/06/11 13:56:58;;;;;;;3.97;1.67;;;29.00;44.00;;;;;;4977941;28;20031;-75
2023/06/11 13:59:24;;;;;;;3.00;1.60;;;28.80;45.60;;;;;;4978020;28;20541;-75
2023/06/11 14:01:55;;;;;;;2.83;1.67;;;28.80;45.80;;;;;;4978358;28;20031;-76
2023/06/11 14:04:21;;;;;;;3.08;1.70;;;29.00;45.40;;;;;;4989331;28;20041;-75
2023/06/11 14:06:47;;;;;;;3.30;1.75;;;29.30;44.30;;;;;;4979415;28;20042;-76
2023/06/11 14:09:13;;;;;;;3.42;1.70;;;29.50;42.80;;;;;;4996973;28;20018;-76
2023/06/11 14:11:38;;;;;;;4.10;1.83;;;29.60;43.70;;;;;;4996351;28;20030;-75
2023/06/11 14:14:04;;;;;;;3.28;1.70;;;29.40;43.90;;;;;;4979365;28;20493;-76
2023/06/11 14:16:30;;;;;;;3.55;2.00;;;29.50;43.00;;;;;;4979602;28;20041;-76
2023/06/11 14:18:55;;;;;;;3.45;1.70;;;29.30;43.20;;;;;;4979286;28;20481;-76
2023/06/11 14:21:21;;;;;;;3.05;1.70;;;28.90;44.60;;;;;;4984223;28;20118;-75
2023/06/11 14:23:46;;;;;;;4.22;1.90;;;28.50;44.20;;;;;;4977242;28;20126;-75
2023/06/11 14:26:12;;;;;;;4.90;2.90;;;28.30;45.30;;;;;;4977520;28;20516;-75
2023/06/11 14:28:38;;;;;;;6.65;2.20;;;28.60;46.20;;;;;;4993794;28;20613;-76
2023/06/11 14:31:06;;;;;;;3.40;1.67;;;28.70;44.70;;;;;;4996656;28;20434;-75
2023/06/11 14:33:32;;;;;;;3.58;1.90;;;28.60;45.10;;;;;;4995449;28;20022;-75
2023/06/11 14:35:57;;;;;;;3.83;1.80;;;28.80;43.50;;;;;;4996595;28;20033;-75
2023/06/11 14:38:23;;;;;;;4.00;1.90;;;28.60;44.80;;;;;;4996657;28;20027;-75
2023/06/11 14:40:49;;;;;;;4.85;1.80;;;28.60;44.40;;;;;;4975264;28;20497;-76
2023/06/11 14:43:15;;;;;;;4.28;1.73;;;28.40;45.50;;;;;;4989404;28;20030;-75
2023/06/11 14:45:40;;;;;;;4.35;1.70;;;28.30;46.30;;;;;;4996709;28;20393;-75
2023/06/11 14:48:06;;;;;;;3.00;1.73;;;28.10;44.90;;;;;;4978557;28;20088;-75
2023/06/11 14:50:32;;;;;;;2.83;1.58;;;28.10;45.20;;;;;;4996387;28;20753;-75
2023/06/11 14:52:57;;;;;;;2.58;1.50;;;28.10;45.80;;;;;;4995094;28;20026;-75
2023/06/11 14:55:23;;;;;;;6.25;1.50;;;28.10;46.20;;;;;;4978936;28;20173;-75
2023/06/11 14:57:49;;;;;;;3.53;1.80;;;28.30;46.80;;;;;;4995322;28;20488;-75
2023/06/11 15:00:15;;;;;;;3.25;2.08;;;28.70;46.30;;;;;;4996361;28;20073;-76
2023/06/11 15:02:41;;;;;;;3.85;1.85;;;28.90;45.10;;;;;;4978707;28;20034;-76
2023/06/11 15:05:07;;;;;;;3.20;1.40;;;29.30;44.90;;;;;;4994569;28;20030;-75
2023/06/11 15:07:32;;;;;;;3.13;1.75;;;29.30;43.90;;;;;;4959501;28;20521;-75
2023/06/11 15:10:00;;;;;;;3.70;1.80;;;29.30;44.40;;;;;;4977314;28;20593;-76
2023/06/11 15:12:25;;;;;;;4.40;1.75;;;29.20;44.00;;;;;;4976971;28;20018;-76
2023/06/11 15:14:51;;;;;;;4.97;2.10;;;29.00;45.30;;;;;;4976627;28;20057;-75
2023/06/11 15:17:17;;;;;;;3.83;1.92;;;28.80;47.10;;;;;;4975873;28;20041;-75
2023/06/11 15:19:43;;;;;;;4.53;2.28;;;28.60;48.10;;;;;;4976714;28;20371;-75
2023/06/11 15:22:09;;;;;;;5.07;2.17;;;28.60;48.80;;;;;;4976755;28;20122;-75
2023/06/11 15:24:34;;;;;;;4.97;2.10;;;28.50;49.00;;;;;;4967114;28;20026;-75
2023/06/11 15:27:01;;;;;;;4.50;2.30;;;28.80;49.20;;;;;;4996281;28;20121;-75
2023/06/11 15:29:27;;;;;;;4.10;2.00;;;29.10;49.30;;;;;;4996486;28;20019;-76
2023/06/11 15:31:55;;;;;;;4.78;2.28;;;29.30;48.40;;;;;;4995927;28;20444;-76
2023/06/11 15:34:21;;;;;;;5.30;1.90;;;29.50;47.50;;;;;;4990342;28;20034;-75
2023/06/11 15:36:47;;;;;;;4.45;2.20;;;29.30;48.20;;;;;;4962844;28;20027;-76
2023/06/11 15:39:13;;;;;;;4.30;2.40;;;29.10;48.70;;;;;;4963551;28;20041;-75
2023/06/11 15:41:38;;;;;;;3.95;1.90;;;28.90;49.10;;;;;;4980266;28;20066;-78
2023/06/11 15:44:04;;;;;;;4.03;2.08;;;28.80;48.70;;;;;;4991303;28;20445;-77
2023/06/11 15:46:30;;;;;;;3.55;2.10;;;28.50;49.00;;;;;;4983865;28;20038;-83
2023/06/11 15:48:56;;;;;;;5.20;2.20;;;28.30;49.30;;;;;;4978136;28;20424;-78
2023/06/11 15:51:22;;;;;;;4.43;2.20;;;28.60;49.30;;;;;;4990869;28;20474;-76
2023/06/11 15:53:48;;;;;;;5.28;2.08;;;28.80;50.20;;;;;;4986241;28;20057;-78
2023/06/11 15:56:14;;;;;;;4.72;2.33;;;28.80;48.90;;;;;;4977981;28;20030;-77
2023/06/11 15:58:39;;;;;;;5.78;2.45;;;29.00;48.30;;;;;;4997862;28;20023;-77
2023/06/11 16:01:05;;;;;;;4.68;2.30;;;29.10;48.30;;;;;;4997761;28;20057;-79
2023/06/11 16:03:31;;;;;;;3.47;1.88;;;29.20;49.40;;;;;;4981524;28;20064;-81
2023/06/11 16:05:56;;;;;;;4.43;2.30;;;29.40;49.50;;;;;;4980471;28;20039;-85
2023/06/11 16:08:22;;;;;;;4.10;2.00;;;29.40;46.80;;;;;;4981563;28;20069;-81
2023/06/11 16:10:48;;;;;;;3.67;2.00;;;29.40;47.70;;;;;;4989774;28;20105;-81
2023/06/11 16:13:13;;;;;;;4.40;2.00;;;29.30;48.40;;;;;;4981852;28;20084;-80
2023/06/11 16:15:39;;;;;;;4.63;2.13;;;29.00;48.60;;;;;;4991011;28;20177;-79
2023/06/11 16:18:05;;;;;;;4.22;2.50;;;28.90;49.20;;;;;;4999401;28;20038;-79
2023/06/11 16:20:31;;;;;;;4.75;2.38;;;28.80;48.80;;;;;;4994835;28;20044;-80
2023/06/11 16:22:56;;;;;;;4.90;2.58;;;28.80;49.50;;;;;;4994358;28;20035;-80
2023/06/11 16:25:22;;;;;;;5.10;2.10;;;28.80;49.10;;;;;;4988757;28;20065;-83
2023/06/11 16:27:48;;;;;;;4.30;2.30;;;28.80;48.80;;;;;;4990670;28;20101;-83
2023/06/11 16:30:17;;;;;;;3.83;2.33;;;28.60;48.50;;;;;;4980003;28;20026;-84
2023/06/11 16:32:42;;;;;;;4.70;2.25;;;28.60;48.70;;;;;;4976440;28;20027;-80
2023/06/11 16:35:08;;;;;;;4.13;2.28;;;28.60;49.00;;;;;;4991426;28;20582;-90
2023/06/11 16:37:34;;;;;;;4.32;2.50;;;28.70;49.30;;;;;;4981639;28;20122;-77
2023/06/11 16:40:00;;;;;;;3.38;2.10;;;28.70;50.10;;;;;;4987356;28;20058;-79
2023/06/11 16:42:26;;;;;;;5.32;2.30;;;28.90;48.90;;;;;;4980862;28;20038;-82
2023/06/11 16:44:51;;;;;;;5.57;2.70;;;28.80;49.40;;;;;;4974872;28;20038;-82
2023/06/11 16:47:17;;;;;;;5.30;2.50;;;28.70;48.90;;;;;;4990476;28;20027;-83
2023/06/11 16:49:42;;;;;;;6.50;2.55;;;28.80;49.40;;;;;;4982167;28;20029;-80
2023/06/11 16:52:10;;;;;;;3.55;2.38;;;28.80;49.00;;;;;;4995325;28;20086;-79
2023/06/11 16:54:35;;;;;;;7.97;2.53;;;28.90;48.70;;;;;;4993214;28;20667;-81
2023/06/11 16:57:01;;;;;;;5.60;2.40;;;28.90;48.60;;;;;;4993141;28;20061;-84
2023/06/11 16:59:27;;;;;;;5.32;2.50;;;28.90;49.00;;;;;;4986916;28;20068;-77
2023/06/11 17:01:52;;;;;;;5.65;2.67;;;28.90;48.70;;;;;;4985960;28;20042;-79
2023/06/11 17:04:18;;;;;;;4.88;2.60;;;28.90;47.70;;;;;;4993049;28;20038;-78
2023/06/11 17:06:44;;;;;;;4.60;2.42;;;28.70;48.30;;;;;;4981652;28;20038;-76
2023/06/11 17:09:09;;;;;;;4.57;2.50;;;28.80;48.80;;;;;;4998205;28;20026;-78
2023/06/11 17:11:35;;;;;;;3.97;2.30;;;28.80;48.70;;;;;;4997865;28;20037;-77
2023/06/11 17:14:01;;;;;;;5.45;2.40;;;28.80;48.40;;;;;;4974637;28;20023;-78